Time;durP1;ratioP1;P1;durP2;ratioP2;P2;SDS_P1;SDS_P2;PMS_P1;PMS_P2;Temp;Humidity;BMP_temperature;BMP_pressure;BME280_temperature;BME280_humidity;BME280_pressure;Samples;Min_cycle;Max_cycle;Signal;HPM_P1;HPM_P2
2022/08/05 00:00:48;;;;;;;4.32;3.90;;;;;;;;;;5072886;28;20042;-83
2022/08/05 00:03:15;;;;;;;4.70;4.30;;;;;;;;;;5072697;28;20032;-83
2022/08/05 00:05:42;;;;;;;5.43;3.72;;;;;;;;;;5072673;28;20094;-84
2022/08/05 00:08:08;;;;;;;4.95;4.38;;;;;;;;;;5072736;28;20043;-81
2022/08/05 00:10:34;;;;;;;6.28;4.63;;;;;;;;;;5072587;28;20471;-85
2022/08/05 00:13:01;;;;;;;8.45;4.85;;;;;;;;;;5072807;28;20044;-83
2022/08/05 00:15:27;;;;;;;6.18;4.93;;;;;;;;;;5072469;28;20025;-84
2022/08/05 00:17:53;;;;;;;4.45;4.05;;;;;;;;;;5072739;28;20036;-82
2022/08/05 00:20:19;;;;;;;5.32;4.45;;;;;;;;;;5054422;28;20029;-84
2022/08/05 00:22:45;;;;;;;6.50;4.70;;;;;;;;;;5054568;28;20029;-81
2022/08/05 00:25:11;;;;;;;6.68;4.82;;;;;;;;;;5072533;28;20024;-85
2022/08/05 00:27:37;;;;;;;4.63;4.22;;;;;;;;;;5054339;28;20158;-85
2022/08/05 00:30:04;;;;;;;5.13;4.35;;;;;;;;;;5071592;28;20036;-85
2022/08/05 00:32:33;;;;;;;5.55;4.47;;;;;;;;;;5072073;28;20033;-84
2022/08/05 00:34:59;;;;;;;4.85;4.05;;;;;;;;;;5072203;28;20040;-83
2022/08/05 00:37:25;;;;;;;4.55;4.00;;;;;;;;;;5069447;28;20395;-82
2022/08/05 00:39:51;;;;;;;5.18;4.07;;;;;;;;;;5071839;28;20034;-85
2022/08/05 00:42:28;;;;;;;5.07;4.53;;;;;;;;;;5071487;28;20538;-81
2022/08/05 00:44:55;;;;;;;5.85;4.38;;;;;;;;;;5070511;28;20037;-85
2022/08/05 00:47:21;;;;;;;4.30;3.88;;;;;;;;;;5071687;28;20031;-82
2022/08/05 00:49:47;;;;;;;6.50;4.40;;;;;;;;;;5071675;28;20036;-82
2022/08/05 00:52:13;;;;;;;6.80;4.82;;;;;;;;;;5048220;28;20029;-84
2022/08/05 00:54:39;;;;;;;4.88;4.38;;;;;;;;;;5071616;28;20032;-82
2022/08/05 00:57:05;;;;;;;5.93;4.85;;;;;;;;;;5069101;28;20135;-84
2022/08/05 00:59:31;;;;;;;5.50;5.00;;;;;;;;;;5071613;28;20032;-84
2022/08/05 01:01:57;;;;;;;6.15;4.95;;;;;;;;;;5048534;28;20037;-82
2022/08/05 01:04:23;;;;;;;6.03;4.90;;;;;;;;;;5071499;28;20032;-83
2022/08/05 01:06:49;;;;;;;5.60;4.80;;;;;;;;;;5071685;28;20036;-83
2022/08/05 01:09:16;;;;;;;5.90;4.60;;;;;;;;;;5071468;28;20032;-85
2022/08/05 01:11:43;;;;;;;6.22;5.63;;;;;;;;;;5071408;28;20086;-83
2022/08/05 01:14:31;;;;;;;5.38;4.75;;;;;;;;;;5071631;28;20021;-85
2022/08/05 01:17:02;;;;;;;5.30;4.80;;;;;;;;;;5070598;28;20029;-86
2022/08/05 01:19:54;;;;;;;5.70;4.78;;;;;;;;;;5069041;28;20025;-83
2022/08/05 01:22:26;;;;;;;6.25;5.13;;;;;;;;;;5053589;28;20045;-82
2022/08/05 01:25:09;;;;;;;5.72;5.22;;;;;;;;;;5071354;28;20051;-82
2022/08/05 01:27:38;;;;;;;5.53;5.03;;;;;;;;;;5069849;28;20072;-82
2022/08/05 01:30:05;;;;;;;6.00;5.18;;;;;;;;;;5071061;28;20029;-85
2022/08/05 01:32:35;;;;;;;4.93;4.45;;;;;;;;;;5071216;28;20029;-85
2022/08/05 01:35:02;;;;;;;5.45;4.75;;;;;;;;;;5071406;28;20545;-83
2022/08/05 01:37:28;;;;;;;6.03;4.75;;;;;;;;;;5071591;28;20068;-82
2022/08/05 01:39:55;;;;;;;6.22;4.90;;;;;;;;;;5071852;28;20036;-82
2022/08/05 01:42:22;;;;;;;5.13;4.30;;;;;;;;;;5071827;28;20047;-84
2022/08/05 01:44:49;;;;;;;5.07;4.55;;;;;;;;;;5071710;28;20036;-81
2022/08/05 01:47:17;;;;;;;5.38;4.88;;;;;;;;;;5053814;28;20038;-83
2022/08/05 01:49:44;;;;;;;4.97;4.45;;;;;;;;;;5071489;28;20468;-82
2022/08/05 01:52:11;;;;;;;5.18;4.55;;;;;;;;;;5071102;28;20100;-82
2022/08/05 01:54:44;;;;;;;4.45;4.05;;;;;;;;;;5070042;28;20082;-83
2022/08/05 01:57:11;;;;;;;5.70;4.80;;;;;;;;;;5074731;28;20048;-82
2022/08/05 01:59:39;;;;;;;5.32;4.85;;;;;;;;;;5071848;28;20036;-85
2022/08/05 02:02:08;;;;;;;4.63;4.10;;;;;;;;;;5074682;28;20032;-82
2022/08/05 02:04:35;;;;;;;5.28;4.38;;;;;;;;;;5074452;28;20028;-85
2022/08/05 02:07:01;;;;;;;4.55;4.15;;;;;;;;;;5074638;28;20029;-86
2022/08/05 02:09:30;;;;;;;4.88;4.30;;;;;;;;;;5056154;28;20458;-82
2022/08/05 02:11:56;;;;;;;4.65;4.25;;;;;;;;;;5074453;28;20036;-84
2022/08/05 02:14:31;;;;;;;5.07;4.35;;;;;;;;;;5074424;28;20047;-84
2022/08/05 02:17:02;;;;;;;6.18;4.05;;;;;;;;;;5048303;28;20067;-82
2022/08/05 02:19:37;;;;;;;4.40;4.00;;;;;;;;;;5074208;28;20552;-83
2022/08/05 02:22:07;;;;;;;4.75;4.30;;;;;;;;;;5072198;28;20047;-85
2022/08/05 02:24:36;;;;;;;4.78;4.28;;;;;;;;;;5074175;28;20173;-84
2022/08/05 02:27:03;;;;;;;6.57;5.50;;;;;;;;;;5074207;28;20032;-84
2022/08/05 02:29:30;;;;;;;5.57;5.00;;;;;;;;;;5050512;28;20467;-84
2022/08/05 02:31:57;;;;;;;3.95;3.65;;;;;;;;;;5071201;28;20112;-83
2022/08/05 02:34:24;;;;;;;4.13;3.80;;;;;;;;;;5073816;28;20031;-82
2022/08/05 02:36:53;;;;;;;4.20;3.90;;;;;;;;;;5050503;28;20068;-84
2022/08/05 02:39:19;;;;;;;4.15;3.75;;;;;;;;;;5071301;28;20112;-83
2022/08/05 02:41:47;;;;;;;5.15;4.68;;;;;;;;;;5073912;28;20024;-86
2022/08/05 02:44:13;;;;;;;4.85;4.38;;;;;;;;;;5050253;28;20037;-83
2022/08/05 02:46:40;;;;;;;4.00;3.70;;;;;;;;;;5073866;28;20476;-82
2022/08/05 02:49:07;;;;;;;5.07;4.57;;;;;;;;;;5073615;28;20060;-86
2022/08/05 02:51:34;;;;;;;6.10;4.72;;;;;;;;;;5073636;28;20032;-82
2022/08/05 02:54:01;;;;;;;5.97;5.10;;;;;;;;;;5073685;28;20029;-84
2022/08/05 02:56:30;;;;;;;5.20;4.55;;;;;;;;;;5073424;28;20035;-82
2022/08/05 02:58:58;;;;;;;6.63;4.40;;;;;;;;;;5073539;28;20029;-85
2022/08/05 03:01:25;;;;;;;5.47;4.97;;;;;;;;;;5073480;28;20395;-82
2022/08/05 03:03:53;;;;;;;6.00;5.05;;;;;;;;;;5073396;28;20032;-84
2022/08/05 03:06:21;;;;;;;6.32;4.78;;;;;;;;;;5043540;28;20027;-82
2022/08/05 03:08:48;;;;;;;5.60;4.78;;;;;;;;;;5053831;28;20416;-84
2022/08/05 03:11:18;;;;;;;7.25;4.70;;;;;;;;;;5053644;28;20124;-84
2022/08/05 03:13:44;;;;;;;5.03;4.28;;;;;;;;;;5053648;28;20033;-81
2022/08/05 03:16:10;;;;;;;5.10;4.60;;;;;;;;;;5053540;28;20107;-84
2022/08/05 03:18:37;;;;;;;5.07;4.50;;;;;;;;;;5053509;28;20484;-82
2022/08/05 03:21:03;;;;;;;12.20;11.07;;;;;;;;;;5053570;28;20061;-82
2022/08/05 03:23:29;;;;;;;7.93;7.13;;;;;;;;;;5053526;28;20033;-86
2022/08/05 03:25:55;;;;;;;6.60;5.88;;;;;;;;;;5053723;28;20041;-83
2022/08/05 03:28:24;;;;;;;5.43;4.93;;;;;;;;;;5053357;28;20041;-83
2022/08/05 03:30:50;;;;;;;5.28;4.82;;;;;;;;;;5053258;28;20053;-84
2022/08/05 03:33:16;;;;;;;5.63;5.13;;;;;;;;;;5053331;28;20033;-82
2022/08/05 03:35:44;;;;;;;4.90;4.45;;;;;;;;;;5053293;28;20116;-85
2022/08/05 03:38:11;;;;;;;5.13;4.68;;;;;;;;;;5035242;28;20083;-83
2022/08/05 03:40:44;;;;;;;4.80;4.40;;;;;;;;;;5053266;28;20033;-84
2022/08/05 03:43:10;;;;;;;6.47;5.97;;;;;;;;;;5053077;28;20029;-83
2022/08/05 03:45:36;;;;;;;7.07;6.47;;;;;;;;;;5053100;28;20033;-84
2022/08/05 03:48:03;;;;;;;8.75;7.85;;;;;;;;;;5053057;28;20112;-84
2022/08/05 03:50:37;;;;;;;5.72;4.82;;;;;;;;;;5053206;28;20033;-83
2022/08/05 03:53:08;;;;;;;5.47;4.97;;;;;;;;;;5052924;28;20033;-81
2022/08/05 03:55:36;;;;;;;6.72;4.97;;;;;;;;;;5053184;28;20104;-82
2022/08/05 03:58:04;;;;;;;6.18;5.53;;;;;;;;;;5034893;28;20128;-82
2022/08/05 04:00:31;;;;;;;5.45;4.97;;;;;;;;;;5053064;28;20472;-85
2022/08/05 04:03:02;;;;;;;5.82;5.10;;;;;;;;;;5052696;28;20053;-84
2022/08/05 04:05:32;;;;;;;7.20;5.90;;;;;;;;;;5053041;28;20036;-84
2022/08/05 04:08:00;;;;;;;6.00;5.43;;;;;;;;;;5052293;28;20025;-83
2022/08/05 04:10:27;;;;;;;5.97;5.47;;;;;;;;;;5034777;28;20120;-84
2022/08/05 04:12:53;;;;;;;7.93;5.72;;;;;;;;;;5052555;28;20040;-83
2022/08/05 04:15:22;;;;;;;7.88;5.63;;;;;;;;;;5052609;28;20032;-82
2022/08/05 04:17:48;;;;;;;6.63;5.90;;;;;;;;;;5034084;28;20086;-82
2022/08/05 04:20:18;;;;;;;9.80;8.75;;;;;;;;;;5052496;28;20377;-84
2022/08/05 04:22:45;;;;;;;18.08;12.02;;;;;;;;;;5034539;28;20377;-85
2022/08/05 04:25:11;;;;;;;14.55;8.13;;;;;;;;;;5052625;28;20033;-82
2022/08/05 04:27:37;;;;;;;13.68;7.90;;;;;;;;;;5052520;28;20056;-81
2022/08/05 04:30:04;;;;;;;10.38;7.90;;;;;;;;;;5052009;28;20037;-84
2022/08/05 04:32:30;;;;;;;10.63;7.45;;;;;;;;;;5052530;28;20036;-86
2022/08/05 04:34:56;;;;;;;9.18;7.10;;;;;;;;;;5052132;28;20041;-81
2022/08/05 04:37:22;;;;;;;6.68;6.00;;;;;;;;;;5052544;28;20037;-83
2022/08/05 04:39:48;;;;;;;9.35;6.10;;;;;;;;;;5052225;28;20043;-82
2022/08/05 04:42:14;;;;;;;8.45;6.32;;;;;;;;;;5052260;28;20036;-82
2022/08/05 04:44:41;;;;;;;10.93;7.72;;;;;;;;;;5052338;28;20032;-82
2022/08/05 04:47:07;;;;;;;14.35;11.23;;;;;;;;;;5052118;28;20037;-85
2022/08/05 04:49:33;;;;;;;14.32;9.30;;;;;;;;;;5052142;28;20518;-83
2022/08/05 04:51:59;;;;;;;17.30;13.40;;;;;;;;;;5051822;28;20064;-78
2022/08/05 04:54:26;;;;;;;26.42;14.32;;;;;;;;;;5052247;28;20477;-83
2022/08/05 04:56:55;;;;;;;16.30;10.00;;;;;;;;;;5034171;28;20033;-82
2022/08/05 04:59:21;;;;;;;13.18;9.32;;;;;;;;;;5034339;28;20374;-82
2022/08/05 05:01:51;;;;;;;16.02;9.50;;;;;;;;;;5052089;28;20036;-80
2022/08/05 05:04:18;;;;;;;11.60;7.63;;;;;;;;;;5052197;28;20044;-83
2022/08/05 05:06:44;;;;;;;15.82;8.75;;;;;;;;;;5051975;28;20037;-86
2022/08/05 05:09:10;;;;;;;10.30;7.05;;;;;;;;;;5051986;28;20486;-82
2022/08/05 05:11:36;;;;;;;10.23;8.13;;;;;;;;;;5052049;28;20037;-81
2022/08/05 05:14:03;;;;;;;12.07;7.82;;;;;;;;;;5060144;28;20039;-82
2022/08/05 05:16:29;;;;;;;8.52;6.45;;;;;;;;;;5063745;28;20059;-81
2022/08/05 05:18:55;;;;;;;7.47;6.13;;;;;;;;;;5053134;28;20515;-82
2022/08/05 05:21:21;;;;;;;8.88;6.70;;;;;;;;;;5033789;28;20114;-80
2022/08/05 05:23:47;;;;;;;9.45;7.07;;;;;;;;;;5051656;28;20036;-81
2022/08/05 05:26:13;;;;;;;8.52;6.25;;;;;;;;;;5054682;28;20107;-80
2022/08/05 05:28:40;;;;;;;9.50;6.57;;;;;;;;;;5055052;28;20087;-82
2022/08/05 05:31:06;;;;;;;8.32;6.88;;;;;;;;;;5067929;28;20124;-80
2022/08/05 05:33:32;;;;;;;8.65;6.82;;;;;;;;;;5064122;28;20040;-84
2022/08/05 05:35:58;;;;;;;7.65;6.45;;;;;;;;;;5066692;28;20044;-84
2022/08/05 05:38:24;;;;;;;10.27;7.05;;;;;;;;;;5069122;28;20495;-85
2022/08/05 05:40:50;;;;;;;11.32;8.60;;;;;;;;;;5060904;28;20037;-81
2022/08/05 05:43:16;;;;;;;10.38;6.95;;;;;;;;;;5055891;28;20399;-83
2022/08/05 05:45:42;;;;;;;6.57;5.82;;;;;;;;;;5055374;28;20033;-81
2022/08/05 05:48:09;;;;;;;8.18;7.20;;;;;;;;;;5073462;28;20412;-80
2022/08/05 05:50:35;;;;;;;10.75;8.65;;;;;;;;;;5073939;28;20024;-84
2022/08/05 05:53:01;;;;;;;6.00;5.40;;;;;;;;;;5073581;28;20052;-80
2022/08/05 05:55:28;;;;;;;7.47;6.20;;;;;;;;;;5073519;28;20033;-86
2022/08/05 05:57:54;;;;;;;7.25;5.93;;;;;;;;;;5073636;28;20475;-81
2022/08/05 06:00:21;;;;;;;9.25;7.15;;;;;;;;;;5073767;28;20036;-84
2022/08/05 06:02:48;;;;;;;7.97;5.78;;;;;;;;;;5073460;28;20029;-83
2022/08/05 06:05:31;;;;;;;7.78;6.07;;;;;;;;;;5067866;28;20047;-81
2022/08/05 06:07:57;;;;;;;7.35;5.50;;;;;;;;;;5055388;28;20109;-81
2022/08/05 06:10:23;;;;;;;8.10;5.65;;;;;;;;;;5073680;28;20036;-80
2022/08/05 06:12:50;;;;;;;7.78;5.38;;;;;;;;;;5073738;28;20036;-85
2022/08/05 06:15:16;;;;;;;8.27;6.40;;;;;;;;;;5056009;28;20029;-85
2022/08/05 06:17:42;;;;;;;5.88;4.60;;;;;;;;;;5053162;28;20468;-83
2022/08/05 06:20:08;;;;;;;5.22;4.72;;;;;;;;;;5053510;28;20199;-85
2022/08/05 06:22:35;;;;;;;6.97;6.38;;;;;;;;;;5053151;28;20039;-84
2022/08/05 06:25:07;;;;;;;7.13;6.38;;;;;;;;;;5056932;28;20032;-83
2022/08/05 06:27:34;;;;;;;5.82;4.97;;;;;;;;;;5054181;28;20121;-85
2022/08/05 06:30:00;;;;;;;7.22;5.55;;;;;;;;;;5054948;28;20395;-83
2022/08/05 06:32:27;;;;;;;7.65;5.80;;;;;;;;;;5054271;28;20036;-82
2022/08/05 06:34:53;;;;;;;7.45;6.85;;;;;;;;;;5068954;28;20032;-81
2022/08/05 06:37:20;;;;;;;6.50;5.30;;;;;;;;;;5073233;28;20040;-82
2022/08/05 06:39:46;;;;;;;8.60;7.05;;;;;;;;;;5071826;28;20040;-83
2022/08/05 06:42:14;;;;;;;8.02;5.32;;;;;;;;;;5066682;28;20033;-85
2022/08/05 06:44:40;;;;;;;14.63;5.97;;;;;;;;;;5052651;28;20033;-89
2022/08/05 06:47:06;;;;;;;6.35;5.22;;;;;;;;;;5045880;28;20036;-82
2022/08/05 06:49:33;;;;;;;5.20;4.80;;;;;;;;;;5072815;28;20068;-84
2022/08/05 06:51:59;;;;;;;6.60;5.93;;;;;;;;;;5065441;28;20039;-83
2022/08/05 06:54:25;;;;;;;5.63;4.75;;;;;;;;;;5053423;28;20464;-82
2022/08/05 06:56:51;;;;;;;11.10;10.10;;;;;;;;;;5054260;28;20031;-84
2022/08/05 06:59:17;;;;;;;7.07;5.15;;;;;;;;;;5070604;28;20122;-83
2022/08/05 07:01:43;;;;;;;5.00;4.50;;;;;;;;;;5055774;28;20036;-80
2022/08/05 07:04:09;;;;;;;4.65;3.85;;;;;;;;;;5060912;28;20076;-82
2022/08/05 07:06:35;;;;;;;5.00;4.05;;;;;;;;;;5061235;28;20119;-85
2022/08/05 07:09:01;;;;;;;4.80;4.40;;;;;;;;;;5069077;28;20500;-84
2022/08/05 07:11:29;;;;;;;5.07;4.65;;;;;;;;;;5038171;28;20037;-85
2022/08/05 07:19:25;;;;;;;5.05;4.25;;;;;;;;;;5059356;28;20064;-82
2022/08/05 07:21:51;;;;;;;4.72;4.22;;;;;;;;;;5072273;28;20408;-82
2022/08/05 07:24:17;;;;;;;4.40;4.00;;;;;;;;;;5072095;28;20039;-84
2022/08/05 07:26:44;;;;;;;5.35;4.18;;;;;;;;;;5072383;28;20043;-84
2022/08/05 07:29:10;;;;;;;4.40;4.05;;;;;;;;;;5066006;28;20033;-85
2022/08/05 07:31:37;;;;;;;4.43;4.03;;;;;;;;;;5071559;28;20518;-83
2022/08/05 07:34:03;;;;;;;5.97;4.20;;;;;;;;;;5063339;28;20466;-85
2022/08/05 07:36:32;;;;;;;5.13;4.15;;;;;;;;;;5060453;28;20036;-84
2022/08/05 07:38:58;;;;;;;3.83;3.53;;;;;;;;;;5071315;28;20107;-84
2022/08/05 07:41:24;;;;;;;4.68;4.13;;;;;;;;;;5071625;28;20098;-85
2022/08/05 07:43:51;;;;;;;5.40;4.28;;;;;;;;;;5050905;28;20033;-84
2022/08/05 07:46:20;;;;;;;10.80;4.65;;;;;;;;;;5052589;28;20039;-85
2022/08/05 07:48:46;;;;;;;4.63;3.83;;;;;;;;;;5071674;28;20032;-83
2022/08/05 07:51:14;;;;;;;5.85;3.70;;;;;;;;;;5052957;28;20434;-83
2022/08/05 07:53:40;;;;;;;4.07;3.70;;;;;;;;;;5069615;28;20028;-83
2022/08/05 07:56:07;;;;;;;5.82;4.13;;;;;;;;;;5059196;28;20044;-86
2022/08/05 07:58:33;;;;;;;4.15;3.75;;;;;;;;;;5051731;28;20037;-85
2022/08/05 08:00:59;;;;;;;4.05;3.50;;;;;;;;;;5043841;28;20036;-82
2022/08/05 08:03:25;;;;;;;6.60;4.50;;;;;;;;;;5053491;28;20028;-83
2022/08/05 08:05:51;;;;;;;4.68;4.00;;;;;;;;;;5071753;28;20032;-85
2022/08/05 08:08:18;;;;;;;3.58;2.95;;;;;;;;;;5066743;28;20111;-84
2022/08/05 08:10:44;;;;;;;3.95;3.25;;;;;;;;;;5053618;28;20036;-85
2022/08/05 08:13:10;;;;;;;4.60;3.45;;;;;;;;;;5057837;28;20485;-85
2022/08/05 08:15:36;;;;;;;3.72;3.20;;;;;;;;;;5033550;28;20392;-85
2022/08/05 08:18:03;;;;;;;3.40;3.10;;;;;;;;;;5051477;28;20487;-84
2022/08/05 08:20:29;;;;;;;3.78;3.40;;;;;;;;;;5071357;28;20480;-83
2022/08/05 08:22:57;;;;;;;4.78;3.60;;;;;;;;;;5071198;28;20037;-84
2022/08/05 08:25:24;;;;;;;3.40;3.10;;;;;;;;;;5071165;28;20074;-84
2022/08/05 08:27:50;;;;;;;5.70;3.63;;;;;;;;;;5047478;28;20025;-82
2022/08/05 08:30:16;;;;;;;6.32;3.22;;;;;;;;;;5067483;28;20053;-85
2022/08/05 08:32:42;;;;;;;3.33;3.03;;;;;;;;;;5068085;28;20040;-82
2022/08/05 08:35:12;;;;;;;5.35;3.28;;;;;;;;;;5066717;28;20052;-84
2022/08/05 08:37:38;;;;;;;5.35;4.88;;;;;;;;;;5068277;28;20040;-86
2022/08/05 08:40:11;;;;;;;4.35;3.92;;;;;;;;;;5065353;28;20035;-83
2022/08/05 08:42:40;;;;;;;4.20;2.92;;;;;;;;;;5058257;28;20384;-82
2022/08/05 08:45:07;;;;;;;3.67;3.22;;;;;;;;;;5070903;28;20033;-82
2022/08/05 08:47:34;;;;;;;3.92;3.50;;;;;;;;;;5048778;28;20510;-83
2022/08/05 08:50:03;;;;;;;4.13;3.30;;;;;;;;;;5059343;28;20048;-85
2022/08/05 08:52:36;;;;;;;4.22;3.38;;;;;;;;;;5062321;28;20040;-84
2022/08/05 08:55:03;;;;;;;3.72;3.42;;;;;;;;;;5052915;28;20120;-83
2022/08/05 08:57:29;;;;;;;6.13;3.67;;;;;;;;;;5055936;28;20033;-79
2022/08/05 08:59:56;;;;;;;3.83;3.53;;;;;;;;;;5060143;28;20755;-83
2022/08/05 09:02:25;;;;;;;4.32;4.03;;;;;;;;;;5052633;28;20476;-83
2022/08/05 09:04:51;;;;;;;3.47;3.13;;;;;;;;;;5070182;28;20082;-81
2022/08/05 09:07:19;;;;;;;3.95;3.47;;;;;;;;;;5074259;28;20051;-83
2022/08/05 09:09:45;;;;;;;4.00;3.13;;;;;;;;;;5074594;28;20036;-87
2022/08/05 09:12:11;;;;;;;3.70;3.40;;;;;;;;;;5050763;28;20078;-83
2022/08/05 09:14:38;;;;;;;4.63;3.40;;;;;;;;;;5073756;28;20103;-85
2022/08/05 09:17:18;;;;;;;27.42;24.92;;;;;;;;;;5050820;28;20139;-85
2022/08/05 09:19:47;;;;;;;4.78;4.10;;;;;;;;;;5048980;28;20499;-85
2022/08/05 09:22:16;;;;;;;4.90;4.43;;;;;;;;;;5055705;28;20062;-86
2022/08/05 09:24:43;;;;;;;3.72;3.42;;;;;;;;;;5069973;28;20028;-84
2022/08/05 09:27:39;;;;;;;3.30;3.10;;;;;;;;;;5070777;28;20511;-82
2022/08/05 09:30:09;;;;;;;3.38;3.17;;;;;;;;;;5072971;28;20044;-82
2022/08/05 09:32:36;;;;;;;3.65;3.35;;;;;;;;;;5071267;28;20040;-83
2022/08/05 09:35:09;;;;;;;3.53;3.22;;;;;;;;;;5056296;28;20036;-83
2022/08/05 09:37:35;;;;;;;3.85;3.58;;;;;;;;;;5073331;28;20036;-88
2022/08/05 09:40:04;;;;;;;4.30;3.70;;;;;;;;;;5055576;28;20035;-84
2022/08/05 09:42:39;;;;;;;4.70;3.60;;;;;;;;;;5060318;28;20112;-82
2022/08/05 09:45:08;;;;;;;4.00;3.38;;;;;;;;;;5069661;28;20116;-85
2022/08/05 09:47:41;;;;;;;3.80;3.50;;;;;;;;;;5035968;28;20064;-85
2022/08/05 09:50:07;;;;;;;4.30;3.90;;;;;;;;;;5077177;28;20091;-84
2022/08/05 09:52:34;;;;;;;8.23;7.50;;;;;;;;;;5066336;28;20115;-81
2022/08/05 09:55:03;;;;;;;3.22;2.92;;;;;;;;;;5068117;28;20079;-83
2022/08/05 09:57:34;;;;;;;3.35;3.05;;;;;;;;;;5061710;28;20029;-83
2022/08/05 10:00:06;;;;;;;3.00;2.80;;;;;;;;;;5058082;28;20048;-81
2022/08/05 10:02:42;;;;;;;3.47;3.17;;;;;;;;;;5053627;28;20127;-83
2022/08/05 10:05:17;;;;;;;3.42;3.17;;;;;;;;;;5073880;28;20029;-83
2022/08/05 10:07:47;;;;;;;4.63;2.85;;;;;;;;;;5073568;28;20430;-84
2022/08/05 10:10:14;;;;;;;3.70;3.40;;;;;;;;;;5073536;28;20457;-82
2022/08/05 10:12:41;;;;;;;5.05;4.55;;;;;;;;;;5072740;28;20482;-82
2022/08/05 10:15:19;;;;;;;2.90;2.70;;;;;;;;;;5063728;28;20111;-83
2022/08/05 10:18:02;;;;;;;3.75;3.45;;;;;;;;;;5073341;28;20077;-82
2022/08/05 10:20:28;;;;;;;3.07;2.87;;;;;;;;;;5073341;28;20487;-84
2022/08/05 10:23:01;;;;;;;4.22;3.75;;;;;;;;;;5069671;28;20517;-80
2022/08/05 10:25:27;;;;;;;4.30;3.90;;;;;;;;;;5056046;28;20036;-81
2022/08/05 10:27:54;;;;;;;9.50;3.95;;;;;;;;;;5067552;28;20265;-83
2022/08/05 10:30:20;;;;;;;3.35;3.05;;;;;;;;;;5072572;28;20048;-82
2022/08/05 10:32:47;;;;;;;5.72;4.47;;;;;;;;;;5073397;28;20041;-87
2022/08/05 10:35:13;;;;;;;3.25;3.05;;;;;;;;;;5073317;28;20040;-82
2022/08/05 10:37:40;;;;;;;4.38;3.00;;;;;;;;;;5070569;28;20169;-83
2022/08/05 10:40:09;;;;;;;3.08;2.78;;;;;;;;;;5073253;28;20031;-84
2022/08/05 10:42:37;;;;;;;3.90;3.60;;;;;;;;;;5055087;28;20040;-85
2022/08/05 10:45:06;;;;;;;3.45;2.90;;;;;;;;;;5063220;28;20370;-80
2022/08/05 10:47:35;;;;;;;3.30;3.03;;;;;;;;;;5061487;28;20028;-83
2022/08/05 10:50:05;;;;;;;3.15;2.92;;;;;;;;;;5054677;28;20040;-86
2022/08/05 10:52:55;;;;;;;4.15;3.05;;;;;;;;;;5073360;28;20028;-86
2022/08/05 10:55:23;;;;;;;3.30;3.00;;;;;;;;;;5065676;28;20468;-86
2022/08/05 10:58:08;;;;;;;3.75;3.40;;;;;;;;;;5052759;28;20557;-84
2022/08/05 11:00:34;;;;;;;5.85;4.07;;;;;;;;;;5053046;28;20029;-85
2022/08/05 11:03:03;;;;;;;4.25;3.25;;;;;;;;;;5053330;28;20041;-85
2022/08/05 11:05:30;;;;;;;3.20;3.00;;;;;;;;;;5052499;28;20503;-83
2022/08/05 11:07:56;;;;;;;3.10;2.90;;;;;;;;;;5048762;28;20467;-81
2022/08/05 11:10:23;;;;;;;3.65;3.35;;;;;;;;;;5054841;28;20037;-82
2022/08/05 11:12:49;;;;;;;3.95;2.90;;;;;;;;;;5053959;28;20037;-83
2022/08/05 11:15:16;;;;;;;2.90;2.70;;;;;;;;;;5071772;28;20037;-86
2022/08/05 11:17:43;;;;;;;4.30;3.85;;;;;;;;;;5051775;28;20028;-83
2022/08/05 11:20:28;;;;;;;3.10;2.70;;;;;;;;;;5069210;28;20037;-83
2022/08/05 11:22:54;;;;;;;3.63;3.33;;;;;;;;;;5072294;28;20479;-86
2022/08/05 11:25:29;;;;;;;3.83;3.53;;;;;;;;;;5053814;28;20036;-84
2022/08/05 11:27:56;;;;;;;6.60;5.93;;;;;;;;;;5070281;28;20036;-82
2022/08/05 11:30:22;;;;;;;3.70;3.20;;;;;;;;;;5071896;28;20159;-81
2022/08/05 11:32:49;;;;;;;3.38;2.83;;;;;;;;;;5068866;28;20045;-82
2022/08/05 11:35:50;;;;;;;3.88;2.70;;;;;;;;;;5044609;28;20124;-82
2022/08/05 11:38:16;;;;;;;4.20;3.08;;;;;;;;;;5026683;28;20046;-82
2022/08/05 11:41:01;;;;;;;2.80;2.55;;;;;;;;;;5038150;28;20028;-81
2022/08/05 11:43:29;;;;;;;3.22;2.92;;;;;;;;;;5068617;28;20024;-84
2022/08/05 11:45:57;;;;;;;5.22;3.00;;;;;;;;;;5052082;28;20085;-85
2022/08/05 11:48:23;;;;;;;3.47;3.17;;;;;;;;;;5052992;28;20067;-81
2022/08/05 11:50:49;;;;;;;3.78;3.47;;;;;;;;;;5071067;28;20098;-84
2022/08/05 11:53:16;;;;;;;3.45;3.15;;;;;;;;;;5054840;28;20119;-84
2022/08/05 11:56:01;;;;;;;4.43;3.60;;;;;;;;;;5072876;28;20025;-82
2022/08/05 11:58:33;;;;;;;3.58;3.28;;;;;;;;;;5071956;28;20028;-86
2022/08/05 12:01:07;;;;;;;4.07;3.78;;;;;;;;;;5053521;28;20046;-83
2022/08/05 12:03:59;;;;;;;3.40;3.10;;;;;;;;;;5067769;28;20037;-83
2022/08/05 12:06:28;;;;;;;3.53;3.22;;;;;;;;;;5067649;28;20426;-84
2022/08/05 12:08:56;;;;;;;4.00;3.70;;;;;;;;;;5071947;28;20033;-82
2022/08/05 12:11:26;;;;;;;3.58;3.28;;;;;;;;;;5072576;28;20028;-82
2022/08/05 12:13:54;;;;;;;3.55;3.25;;;;;;;;;;5071806;28;20036;-83
2022/08/05 12:16:20;;;;;;;4.53;4.22;;;;;;;;;;5070145;28;20037;-83
2022/08/05 12:18:46;;;;;;;3.55;3.25;;;;;;;;;;5063537;28;20086;-83
2022/08/05 12:21:15;;;;;;;3.42;3.17;;;;;;;;;;5064832;28;20040;-83
2022/08/05 12:24:01;;;;;;;4.35;3.00;;;;;;;;;;5072584;28;20534;-82
2022/08/05 12:26:34;;;;;;;3.90;3.60;;;;;;;;;;5048695;28;20086;-83
2022/08/05 12:29:01;;;;;;;3.13;2.92;;;;;;;;;;5047586;28;20037;-84
2022/08/05 12:31:27;;;;;;;3.28;2.97;;;;;;;;;;5062201;28;20454;-82
2022/08/05 12:33:53;;;;;;;3.22;2.90;;;;;;;;;;5063437;28;20052;-83
2022/08/05 12:36:20;;;;;;;3.83;3.22;;;;;;;;;;5051642;28;20669;-83
2022/08/05 12:38:46;;;;;;;3.50;3.20;;;;;;;;;;5071533;28;20484;-83
2022/08/05 12:41:13;;;;;;;3.17;2.97;;;;;;;;;;5071805;28;20025;-82
2022/08/05 12:43:58;;;;;;;4.43;3.38;;;;;;;;;;5071472;28;20534;-84
2022/08/05 12:46:29;;;;;;;3.40;3.10;;;;;;;;;;5070544;28;20040;-85
2022/08/05 12:48:58;;;;;;;3.55;3.25;;;;;;;;;;5071451;28;20040;-83
2022/08/05 12:51:26;;;;;;;3.63;3.35;;;;;;;;;;5068513;28;20507;-83
2022/08/05 12:53:57;;;;;;;4.03;3.08;;;;;;;;;;5050561;28;20033;-82
2022/08/05 12:56:24;;;;;;;3.90;3.05;;;;;;;;;;5051698;28;20022;-81
2022/08/05 12:59:09;;;;;;;3.55;3.05;;;;;;;;;;5051862;28;20033;-82
2022/08/05 13:01:36;;;;;;;3.50;3.20;;;;;;;;;;5050087;28;20112;-82
2022/08/05 13:04:03;;;;;;;5.57;3.40;;;;;;;;;;5034342;28;20036;-85
2022/08/05 13:06:29;;;;;;;4.10;3.28;;;;;;;;;;5044540;28;20123;-82
2022/08/05 13:08:56;;;;;;;3.30;3.03;;;;;;;;;;5071805;28;20032;-80
2022/08/05 13:11:29;;;;;;;3.53;3.15;;;;;;;;;;5072120;28;20029;-84
2022/08/05 13:13:59;;;;;;;3.95;3.00;;;;;;;;;;5072148;28;20028;-83
2022/08/05 13:16:25;;;;;;;3.40;3.10;;;;;;;;;;5071662;28;20032;-83
2022/08/05 13:18:52;;;;;;;3.38;3.08;;;;;;;;;;5071564;28;20442;-85
2022/08/05 13:21:18;;;;;;;3.20;3.00;;;;;;;;;;5071845;28;20399;-82
2022/08/05 13:23:44;;;;;;;3.50;3.20;;;;;;;;;;5054199;28;20535;-82
2022/08/05 13:26:10;;;;;;;3.53;3.22;;;;;;;;;;5072007;28;20039;-87
2022/08/05 13:28:37;;;;;;;3.72;3.42;;;;;;;;;;5071781;28;20491;-83
2022/08/05 13:31:03;;;;;;;4.32;3.42;;;;;;;;;;5072001;28;20202;-82
2022/08/05 13:33:29;;;;;;;4.35;3.20;;;;;;;;;;5071295;28;20112;-85
2022/08/05 13:35:55;;;;;;;3.58;3.28;;;;;;;;;;5072217;28;20047;-83
2022/08/05 13:38:22;;;;;;;3.50;3.30;;;;;;;;;;5071779;28;20032;-86
2022/08/05 13:40:48;;;;;;;6.05;3.58;;;;;;;;;;5071994;28;20025;-85
2022/08/05 13:43:16;;;;;;;4.30;2.88;;;;;;;;;;5054124;28;20068;-83
2022/08/05 13:45:42;;;;;;;3.90;3.53;;;;;;;;;;5071682;28;20103;-81
2022/08/05 13:48:09;;;;;;;3.50;3.20;;;;;;;;;;5071452;28;20029;-84
2022/08/05 13:50:35;;;;;;;4.78;3.45;;;;;;;;;;5074917;28;20036;-82
2022/08/05 13:53:01;;;;;;;7.28;4.30;;;;;;;;;;5075461;28;20453;-86
2022/08/05 13:55:27;;;;;;;4.68;3.38;;;;;;;;;;5075057;28;20464;-81
2022/08/05 13:57:53;;;;;;;3.17;2.88;;;;;;;;;;5057434;28;20040;-81
2022/08/05 14:00:20;;;;;;;4.22;3.13;;;;;;;;;;5075477;28;20499;-83
2022/08/05 14:02:46;;;;;;;3.47;3.17;;;;;;;;;;5074624;28;20037;-82
2022/08/05 14:05:14;;;;;;;3.30;3.00;;;;;;;;;;5075362;28;20043;-85
2022/08/05 14:07:41;;;;;;;4.90;3.58;;;;;;;;;;5074746;28;20028;-82
2022/08/05 14:10:09;;;;;;;3.35;3.00;;;;;;;;;;5075146;28;20057;-85
2022/08/05 14:12:35;;;;;;;4.78;3.85;;;;;;;;;;5075088;28;20103;-85
2022/08/05 14:15:01;;;;;;;3.72;3.30;;;;;;;;;;5074993;28;20488;-83
2022/08/05 14:17:28;;;;;;;3.20;3.00;;;;;;;;;;5074698;28;20036;-87
2022/08/05 14:19:54;;;;;;;2.95;2.75;;;;;;;;;;5057082;28;20036;-84
2022/08/05 14:22:20;;;;;;;2.85;2.65;;;;;;;;;;5056769;28;20407;-82
2022/08/05 14:24:47;;;;;;;5.35;3.78;;;;;;;;;;5074787;28;20079;-84
2022/08/05 14:27:13;;;;;;;3.33;3.10;;;;;;;;;;5075113;28;20055;-82
2022/08/05 14:29:39;;;;;;;5.75;3.65;;;;;;;;;;5074661;28;20036;-84
2022/08/05 14:32:06;;;;;;;3.95;3.55;;;;;;;;;;5074569;28;20098;-89
2022/08/05 14:34:32;;;;;;;3.92;3.50;;;;;;;;;;5056709;28;20060;-84
2022/08/05 14:36:58;;;;;;;4.60;4.15;;;;;;;;;;5074565;28;20179;-89
2022/08/05 14:39:25;;;;;;;4.00;3.60;;;;;;;;;;5077075;28;20032;-87
2022/08/05 14:41:51;;;;;;;5.25;4.78;;;;;;;;;;5076221;28;20037;-87
2022/08/05 14:44:17;;;;;;;3.47;3.15;;;;;;;;;;5075331;28;20070;-87
2022/08/05 14:46:52;;;;;;;4.57;3.40;;;;;;;;;;5056028;28;20040;-87
2022/08/05 14:49:19;;;;;;;4.32;3.70;;;;;;;;;;5074191;28;20078;-87
2022/08/05 14:51:47;;;;;;;3.78;3.47;;;;;;;;;;5056228;28;20115;-85